Terminal Aerodrome Forecast
Issued by NWS

Home | Current Version | Previous Version | Text Only | Print | Product List | Glossary On
Versions: 1 2 3 4 5 6 7 8 9 10 11 12 13 14
000
FTUS45 KABQ 252300
TAFGUP
TAF
KGUP 252320Z 2600/2624 29010G18KT P6SM VCSH BKN100
     FM260200 26006KT P6SM BKN120
     FM260800 VRB03KT P6SM SCT150
     FM262000 31006KT P6SM BKN100=

USA.gov is the U.S. government's official web portal to all federal, state and local government web resources and services.